createdAt,value
2022-11-02T00:01:39.595Z,19.05
2022-11-02T00:04:06.226Z,19.13
2022-11-02T00:06:32.894Z,19.05
2022-11-02T00:08:59.510Z,19.06
2022-11-02T00:11:26.255Z,19.08
2022-11-02T00:13:52.886Z,19.03
2022-11-02T00:16:19.520Z,19.04
2022-11-02T00:18:46.138Z,19.08
2022-11-02T00:21:12.751Z,18.98
2022-11-02T00:23:39.348Z,18.74
2022-11-02T00:26:06.010Z,18.85
2022-11-02T00:28:32.686Z,18.89
2022-11-02T00:30:59.269Z,18.88
2022-11-02T00:33:25.897Z,18.92
2022-11-02T00:35:52.512Z,19.01
2022-11-02T00:38:19.199Z,18.90
2022-11-02T00:40:45.805Z,18.86
2022-11-02T00:43:12.398Z,18.95
2022-11-02T00:45:38.985Z,18.77
2022-11-02T00:48:05.992Z,18.80
2022-11-02T00:50:32.850Z,18.93
2022-11-02T00:52:59.484Z,18.87
2022-11-02T00:55:26.101Z,18.81
2022-11-02T00:57:52.693Z,18.81
2022-11-02T01:00:19.310Z,18.89
2022-11-02T01:02:46.047Z,18.91
2022-11-02T01:05:12.798Z,18.88
2022-11-02T01:07:39.392Z,18.92
2022-11-02T01:10:06.055Z,18.93
2022-11-02T01:12:32.693Z,18.96
2022-11-02T01:14:59.282Z,18.90
2022-11-02T01:17:25.937Z,18.98
2022-11-02T01:19:52.551Z,18.93
2022-11-02T01:22:19.194Z,19.00
2022-11-02T01:24:45.781Z,18.83
2022-11-02T01:27:12.393Z,18.80
2022-11-02T01:29:39.009Z,18.88
2022-11-02T01:32:05.868Z,18.90
2022-11-02T01:34:32.510Z,18.89
2022-11-02T01:36:59.473Z,18.84
2022-11-02T01:39:26.064Z,18.86
2022-11-02T01:41:52.699Z,18.88
2022-11-02T01:44:19.293Z,18.91
2022-11-02T01:46:45.914Z,18.93
2022-11-02T01:49:12.505Z,18.98
2022-11-02T01:51:39.125Z,19.04
2022-11-02T01:54:05.782Z,19.02
2022-11-02T01:56:32.420Z,18.98
2022-11-02T01:58:59.027Z,18.77
2022-11-02T02:01:25.692Z,18.85
2022-11-02T02:03:52.340Z,18.80
2022-11-02T02:06:18.930Z,18.87
2022-11-02T02:08:45.536Z,18.86
2022-11-02T02:11:12.171Z,18.77
2022-11-02T02:13:38.784Z,18.66
2022-11-02T02:16:05.414Z,18.74
2022-11-02T02:18:32.028Z,18.76
2022-11-02T02:20:58.655Z,18.79
2022-11-02T02:23:25.252Z,18.75
2022-11-02T02:25:51.823Z,18.71
2022-11-02T02:28:18.450Z,18.73
2022-11-02T02:30:45.054Z,18.77
2022-11-02T02:33:11.689Z,18.70
2022-11-02T02:35:38.285Z,18.74
2022-11-02T02:38:05.245Z,18.81
2022-11-02T02:40:32.521Z,18.80
2022-11-02T02:42:59.186Z,18.68
2022-11-02T02:45:25.799Z,18.65
2022-11-02T02:47:52.419Z,18.66
2022-11-02T02:50:19.009Z,18.51
2022-11-02T02:52:45.594Z,18.52
2022-11-02T02:55:12.222Z,18.53
2022-11-02T02:57:38.853Z,18.54
2022-11-02T03:00:05.506Z,18.22
2022-11-02T03:02:32.248Z,17.95
2022-11-02T03:04:58.932Z,17.85
2022-11-02T03:07:29.575Z,18.16
2022-11-02T03:09:59.433Z,18.22
2022-11-02T03:12:26.081Z,17.92
2022-11-02T03:17:36.828Z,17.82
2022-11-02T03:20:03.457Z,18.05
2022-11-02T03:22:30.097Z,18.13
2022-11-02T03:24:56.707Z,18.04
2022-11-02T03:27:23.304Z,18.00
2022-11-02T03:29:49.938Z,18.03
2022-11-02T03:32:16.537Z,18.00
2022-11-02T03:34:43.155Z,18.10
2022-11-02T03:39:36.279Z,18.02
2022-11-02T03:42:02.870Z,18.10
2022-11-02T03:44:29.478Z,18.17
2022-11-02T03:46:56.056Z,18.05
2022-11-02T03:49:22.657Z,17.98
2022-11-02T03:51:49.307Z,17.94
2022-11-02T03:54:15.938Z,17.84
2022-11-02T03:56:42.579Z,17.70
2022-11-02T03:59:09.186Z,17.71
2022-11-02T04:01:35.876Z,17.73
2022-11-02T04:04:02.522Z,17.90
2022-11-02T04:06:29.113Z,17.94
2022-11-02T04:08:55.723Z,17.99
2022-11-02T04:11:22.304Z,17.98
2022-11-02T04:13:48.931Z,17.87
2022-11-02T04:16:15.541Z,17.87
2022-11-02T04:18:42.159Z,17.91
2022-11-02T04:21:08.746Z,17.94
2022-11-02T04:23:35.368Z,17.79
2022-11-02T04:26:01.962Z,17.77
2022-11-02T04:28:28.576Z,17.64
2022-11-02T04:30:55.198Z,17.60
2022-11-02T04:33:21.825Z,17.65
2022-11-02T04:35:48.431Z,17.67
2022-11-02T04:38:15.066Z,17.74
2022-11-02T04:40:41.683Z,17.72
2022-11-02T04:43:08.290Z,17.61
2022-11-02T04:45:34.873Z,17.51
2022-11-02T04:48:01.748Z,17.39
2022-11-02T04:50:28.564Z,17.42
2022-11-02T04:52:55.194Z,17.47
2022-11-02T04:58:06.292Z,17.30
2022-11-02T05:00:33.177Z,17.29
2022-11-02T05:02:59.809Z,17.31
2022-11-02T05:05:26.465Z,17.24
2022-11-02T05:07:53.063Z,17.19
2022-11-02T05:10:19.698Z,17.09
2022-11-02T05:12:46.341Z,17.15
2022-11-02T05:15:12.930Z,17.21
2022-11-02T05:17:39.551Z,17.04
2022-11-02T05:20:06.191Z,17.06
2022-11-02T05:22:32.776Z,16.95
2022-11-02T05:24:59.367Z,16.80
2022-11-02T05:27:26.184Z,16.80
2022-11-02T05:29:52.792Z,16.71
2022-11-02T05:32:19.406Z,16.78
2022-11-02T05:34:46.029Z,16.73
2022-11-02T05:39:56.679Z,16.62
2022-11-02T05:42:23.289Z,16.66
2022-11-02T05:44:49.880Z,16.67
2022-11-02T05:47:16.495Z,16.74
2022-11-02T05:49:43.112Z,16.72
2022-11-02T05:52:09.698Z,16.75
2022-11-02T05:54:36.334Z,16.73
2022-11-02T05:57:02.931Z,16.85
2022-11-02T05:59:29.546Z,16.79
2022-11-02T06:01:56.259Z,16.78
2022-11-02T06:04:22.900Z,16.75
2022-11-02T06:06:49.531Z,16.80
2022-11-02T06:09:16.156Z,16.86
2022-11-02T06:11:42.749Z,16.91
2022-11-02T06:14:09.371Z,16.88
2022-11-02T06:16:35.966Z,16.88
2022-11-02T06:19:02.706Z,16.78
2022-11-02T06:21:29.359Z,16.71
2022-11-02T06:23:55.981Z,16.45
2022-11-02T06:26:22.581Z,16.61
2022-11-02T06:28:49.206Z,16.61
2022-11-02T06:31:15.827Z,16.69
2022-11-02T06:33:42.418Z,16.60
2022-11-02T06:36:09.059Z,16.62
2022-11-02T06:38:35.712Z,16.79
2022-11-02T06:41:02.358Z,16.84
2022-11-02T06:43:28.987Z,16.75
2022-11-02T06:45:55.583Z,16.51
2022-11-02T06:48:22.255Z,16.83
2022-11-02T06:50:48.900Z,16.85
2022-11-02T06:53:15.591Z,16.82
2022-11-02T06:55:42.193Z,16.68
2022-11-02T06:58:08.837Z,16.80
2022-11-02T07:00:35.499Z,16.79
2022-11-02T07:03:02.276Z,16.67
2022-11-02T07:05:29.509Z,16.88
2022-11-02T07:07:56.123Z,17.09
2022-11-02T07:10:22.715Z,17.22
2022-11-02T07:12:49.337Z,17.36
2022-11-02T07:15:15.916Z,17.38
2022-11-02T07:17:42.514Z,17.53
2022-11-02T07:20:09.126Z,17.60
2022-11-02T07:22:35.750Z,17.73
2022-11-02T07:25:02.384Z,17.64
2022-11-02T07:27:29.167Z,17.85
2022-11-02T07:29:55.782Z,18.06
2022-11-02T07:32:22.406Z,18.10
2022-11-02T07:34:49.006Z,18.18
2022-11-02T07:37:15.614Z,18.38
2022-11-02T07:39:42.211Z,18.43
2022-11-02T07:42:08.795Z,18.38
2022-11-02T07:44:35.405Z,18.60
2022-11-02T07:47:01.991Z,18.60
2022-11-02T07:49:28.634Z,18.63
2022-11-02T07:51:55.226Z,18.59
2022-11-02T07:54:21.845Z,18.72
2022-11-02T07:56:48.464Z,18.82
2022-11-02T07:59:15.062Z,18.92
2022-11-02T08:01:41.745Z,19.27
2022-11-02T08:04:08.409Z,19.31
2022-11-02T08:06:35.060Z,19.41
2022-11-02T08:09:01.683Z,19.44
2022-11-02T08:11:28.283Z,19.35
2022-11-02T08:13:54.932Z,19.24
2022-11-02T08:16:21.546Z,19.46
2022-11-02T08:18:48.159Z,19.56
2022-11-02T08:21:14.749Z,19.66
2022-11-02T08:23:41.374Z,19.67
2022-11-02T08:26:07.997Z,20.00
2022-11-02T08:28:34.610Z,20.22
2022-11-02T08:31:01.233Z,20.49
2022-11-02T08:33:27.845Z,20.74
2022-11-02T08:35:54.487Z,20.93
2022-11-02T08:38:21.097Z,21.13
2022-11-02T08:40:48.102Z,21.29
2022-11-02T08:43:14.788Z,21.28
2022-11-02T08:48:28.002Z,21.41
2022-11-02T08:50:54.653Z,21.52
2022-11-02T08:53:22.410Z,21.58
2022-11-02T08:55:49.050Z,21.37
2022-11-02T08:58:15.698Z,20.97
2022-11-02T09:00:42.334Z,21.21
2022-11-02T09:03:08.967Z,21.21
2022-11-02T09:05:35.615Z,21.27
2022-11-02T09:08:02.507Z,21.45
2022-11-02T09:10:29.262Z,21.62
2022-11-02T09:12:55.854Z,21.72
2022-11-02T09:15:22.460Z,21.69
2022-11-02T09:17:49.057Z,21.84
2022-11-02T09:20:15.670Z,22.12
2022-11-02T09:22:42.268Z,22.27
2022-11-02T09:25:08.876Z,22.55
2022-11-02T09:27:35.471Z,22.59
2022-11-02T09:30:02.091Z,22.49
2022-11-02T09:32:28.681Z,22.25
2022-11-02T09:34:55.297Z,22.20
2022-11-02T09:37:21.943Z,21.91
2022-11-02T09:39:48.582Z,21.78
2022-11-02T09:42:15.170Z,21.67
2022-11-02T09:44:41.760Z,22.20
2022-11-02T09:49:54.946Z,22.50
2022-11-02T09:52:21.590Z,23.23
2022-11-02T09:54:48.268Z,23.18
2022-11-02T09:57:14.865Z,22.93
2022-11-02T09:59:41.520Z,23.15
2022-11-02T10:02:08.146Z,23.49
2022-11-02T10:04:34.730Z,23.22
2022-11-02T15:17:53.367Z,23.77
2022-11-02T15:20:20.030Z,23.85
2022-11-02T15:22:47.033Z,23.91
2022-11-02T15:25:13.831Z,23.89
2022-11-02T15:27:40.457Z,23.89
2022-11-02T15:30:07.148Z,23.82
2022-11-02T15:32:33.890Z,23.77
2022-11-02T15:35:00.573Z,23.73
2022-11-02T15:37:27.219Z,23.67
2022-11-02T15:39:53.845Z,23.62
2022-11-02T15:42:20.570Z,23.62
2022-11-02T15:44:47.177Z,23.62
2022-11-02T15:47:14.014Z,23.50
2022-11-02T15:49:40.663Z,23.40
2022-11-02T15:52:07.382Z,23.29
2022-11-02T15:54:34.046Z,23.22
2022-11-02T15:57:00.703Z,23.23
2022-11-02T15:59:27.321Z,23.21
2022-11-02T16:01:54.064Z,23.17
2022-11-02T16:04:20.879Z,23.14
2022-11-02T16:06:47.620Z,23.08
2022-11-02T16:09:14.268Z,22.98
2022-11-02T16:11:40.908Z,22.69
2022-11-02T16:14:09.321Z,22.85
2022-11-02T16:16:36.280Z,22.80
2022-11-02T16:19:02.937Z,22.81
2022-11-02T16:21:29.613Z,22.70
2022-11-02T16:23:56.300Z,22.66
2022-11-02T16:26:22.949Z,22.55
2022-11-02T16:28:49.769Z,22.58
2022-11-02T16:31:19.399Z,22.54
2022-11-02T16:33:46.529Z,22.46
2022-11-02T16:36:13.254Z,22.35
2022-11-02T16:38:39.893Z,22.17
2022-11-02T16:41:06.534Z,22.24
2022-11-02T16:43:33.160Z,22.19
2022-11-02T16:45:59.843Z,22.03
2022-11-02T16:48:26.475Z,21.95
2022-11-02T16:50:53.119Z,21.83
2022-11-02T16:53:19.768Z,21.79
2022-11-02T16:55:46.718Z,21.81
2022-11-02T16:58:13.621Z,21.79
2022-11-02T17:00:40.320Z,21.76
2022-11-02T17:03:06.980Z,21.74
2022-11-02T17:05:33.748Z,21.77
2022-11-02T17:08:00.440Z,21.80
2022-11-02T17:10:27.093Z,21.76
2022-11-02T17:12:53.763Z,21.73
2022-11-02T17:15:20.590Z,21.72
2022-11-02T17:17:47.348Z,21.62
2022-11-02T17:20:14.047Z,21.56
2022-11-02T17:22:40.924Z,21.55
2022-11-02T17:25:07.640Z,21.46
2022-11-02T17:27:39.213Z,21.36
2022-11-02T17:30:08.844Z,21.35
2022-11-02T17:32:35.573Z,21.34
2022-11-02T17:35:02.322Z,21.35
2022-11-02T17:37:28.980Z,21.29
2022-11-02T17:39:55.636Z,21.27
2022-11-02T17:42:22.380Z,21.13
2022-11-02T17:44:49.225Z,21.06
2022-11-02T17:47:15.877Z,21.10
2022-11-02T17:49:42.518Z,21.12
2022-11-02T17:52:09.239Z,21.13
2022-11-02T17:54:35.940Z,21.15
2022-11-02T17:57:02.596Z,21.12
2022-11-02T17:59:29.256Z,21.10
2022-11-02T18:01:56.148Z,21.14
2022-11-02T18:04:22.962Z,21.13
2022-11-02T18:06:49.669Z,21.13
2022-11-02T18:09:16.279Z,21.07
2022-11-02T18:11:43.184Z,21.06
2022-11-02T18:14:09.838Z,20.96
2022-11-02T18:16:36.618Z,20.95
2022-11-02T18:19:03.253Z,20.91
2022-11-02T18:21:30.116Z,20.92
2022-11-02T18:23:56.770Z,20.96
2022-11-02T18:26:24.903Z,21.02
2022-11-02T18:28:51.561Z,21.14
2022-11-02T18:31:18.206Z,21.09
2022-11-02T18:33:44.925Z,20.99
2022-11-02T18:36:11.577Z,20.88
2022-11-02T18:38:38.210Z,20.91
2022-11-02T18:41:04.875Z,20.85
2022-11-02T18:43:31.496Z,20.93
2022-11-02T18:45:58.390Z,20.93
2022-11-02T18:48:25.222Z,20.98
2022-11-02T18:50:51.897Z,21.03
2022-11-02T18:53:18.583Z,20.88
2022-11-02T18:55:45.328Z,21.00
2022-11-02T18:58:11.964Z,20.96
2022-11-02T19:00:38.634Z,21.09
2022-11-02T19:03:05.293Z,20.75
2022-11-02T19:05:31.924Z,20.87
2022-11-02T19:07:58.795Z,20.91
2022-11-02T19:10:25.445Z,20.99
2022-11-02T19:12:52.086Z,20.79
2022-11-02T19:15:19.921Z,20.50
2022-11-02T19:17:46.562Z,20.63
2022-11-02T19:20:13.206Z,20.59
2022-11-02T19:22:39.836Z,20.29
2022-11-02T19:25:06.488Z,19.72
2022-11-02T19:27:33.126Z,19.28
2022-11-02T19:29:59.787Z,19.10
2022-11-02T19:32:26.415Z,18.72
2022-11-02T19:34:53.060Z,18.25
2022-11-02T19:37:19.812Z,18.77
2022-11-02T19:39:46.479Z,18.46
2022-11-02T19:42:13.299Z,18.89
2022-11-02T19:44:42.771Z,18.62
2022-11-02T19:47:09.813Z,18.81
2022-11-02T19:49:36.546Z,18.31
2022-11-02T19:52:03.170Z,18.49
2022-11-02T19:54:29.899Z,18.75
2022-11-02T19:56:56.537Z,19.14
2022-11-02T19:59:23.421Z,19.12
2022-11-02T20:01:50.157Z,19.31
2022-11-02T20:04:16.821Z,19.31
2022-11-02T20:06:43.543Z,19.45
2022-11-02T20:09:10.405Z,19.22
2022-11-02T20:11:37.019Z,18.96
2022-11-02T20:14:03.734Z,18.18
2022-11-02T20:16:30.453Z,18.46
2022-11-02T20:18:57.095Z,18.35
2022-11-02T20:21:28.290Z,18.15
2022-11-02T20:23:58.127Z,18.38
2022-11-02T20:26:24.789Z,18.58
2022-11-02T20:28:51.432Z,18.28
2022-11-02T20:31:18.099Z,18.36
2022-11-02T20:33:44.788Z,18.80
2022-11-02T20:36:11.504Z,18.98
2022-11-02T20:38:38.175Z,19.06
2022-11-02T20:41:04.823Z,19.04
2022-11-02T20:43:31.458Z,19.17
2022-11-02T20:46:11.076Z,19.18
2022-11-02T20:48:44.765Z,19.00
2022-11-02T20:51:11.420Z,18.62
2022-11-02T20:53:38.193Z,18.51
2022-11-02T20:56:04.806Z,18.87
2022-11-02T20:58:31.488Z,19.03
2022-11-02T21:00:58.158Z,19.23
2022-11-02T21:03:24.826Z,19.00
2022-11-02T21:05:51.471Z,18.89
2022-11-02T21:08:18.086Z,19.01
2022-11-02T21:10:44.718Z,19.15
2022-11-02T21:13:11.363Z,19.32
2022-11-02T21:15:38.008Z,19.38
2022-11-02T21:18:04.637Z,19.38
2022-11-02T21:20:34.893Z,19.32
2022-11-02T21:23:01.814Z,19.49
2022-11-02T21:25:28.561Z,19.49
2022-11-02T21:27:55.243Z,19.59
2022-11-02T21:30:21.860Z,19.65
2022-11-02T21:32:48.507Z,19.67
2022-11-02T21:35:15.174Z,19.45
2022-11-02T21:37:41.788Z,19.40
2022-11-02T21:40:08.455Z,19.45
2022-11-02T21:42:35.077Z,19.44
2022-11-02T21:45:01.734Z,19.47
2022-11-02T21:47:28.381Z,19.55
2022-11-02T21:49:55.008Z,19.60
2022-11-02T21:52:21.645Z,19.39
2022-11-02T21:54:48.286Z,19.41
2022-11-02T21:57:14.980Z,19.51
2022-11-02T21:59:41.617Z,19.53
2022-11-02T22:02:08.349Z,19.42
2022-11-02T22:04:35.062Z,19.53
2022-11-02T22:07:01.711Z,19.61
2022-11-02T22:09:28.370Z,19.63
2022-11-02T22:11:55.000Z,19.63
2022-11-02T22:14:21.628Z,19.65
2022-11-02T22:16:48.288Z,19.67
2022-11-02T22:19:14.932Z,19.65
2022-11-02T22:21:41.604Z,19.58
2022-11-02T22:24:08.305Z,19.61
2022-11-02T22:26:35.006Z,19.59
2022-11-02T22:29:01.640Z,19.48
2022-11-02T22:31:28.299Z,19.44
2022-11-02T22:33:54.929Z,19.40
2022-11-02T22:36:21.568Z,19.47
2022-11-02T22:38:48.232Z,19.51
2022-11-02T22:41:14.988Z,19.55
2022-11-02T22:43:41.930Z,19.58
2022-11-02T22:46:08.547Z,19.67
2022-11-02T22:48:35.179Z,19.56
2022-11-02T22:51:01.822Z,19.59
2022-11-02T22:53:28.458Z,19.66
2022-11-02T22:55:55.098Z,19.63
2022-11-02T22:58:21.772Z,19.68
2022-11-02T23:00:48.509Z,19.71
2022-11-02T23:03:15.268Z,19.65
2022-11-02T23:05:41.887Z,19.49
2022-11-02T23:08:08.528Z,19.41
2022-11-02T23:10:35.169Z,19.41
2022-11-02T23:13:01.830Z,19.44
2022-11-02T23:15:28.451Z,19.46
2022-11-02T23:17:55.131Z,19.49
2022-11-02T23:20:21.788Z,19.53
2022-11-02T23:22:48.438Z,19.59
2022-11-02T23:25:15.219Z,19.50
2022-11-02T23:27:42.056Z,19.31
2022-11-02T23:30:08.879Z,19.49
2022-11-02T23:32:35.685Z,19.66
2022-11-02T23:35:02.424Z,19.45
2022-11-02T23:37:29.064Z,19.34
2022-11-02T23:39:55.913Z,19.33
2022-11-02T23:42:22.587Z,19.44
2022-11-02T23:44:49.226Z,19.59
2022-11-02T23:47:15.845Z,19.56
2022-11-02T23:49:42.518Z,19.58
2022-11-02T23:52:09.243Z,19.57
2022-11-02T23:54:35.882Z,19.50
2022-11-02T23:57:02.500Z,19.48
2022-11-02T23:59:29.137Z,19.52
